sensor_id;sensor_type;location;lat;lon;timestamp;temperature;humidity
26212;DHT22;13951;49.516;6.094;2023-04-01T00:01:00;9.10;99.90
26212;DHT22;13951;49.516;6.094;2023-04-01T00:03:33;9.10;99.90
26212;DHT22;13951;49.516;6.094;2023-04-01T00:06:06;9.10;99.90
26212;DHT22;13951;49.516;6.094;2023-04-01T00:08:39;9.10;99.90
26212;DHT22;13951;49.516;6.094;2023-04-01T00:11:13;9.10;99.90
26212;DHT22;13951;49.516;6.094;2023-04-01T00:13:46;9.20;99.90
26212;DHT22;13951;49.516;6.094;2023-04-01T00:16:19;9.20;99.90
26212;DHT22;13951;49.516;6.094;2023-04-01T00:18:54;9.20;99.90
26212;DHT22;13951;49.516;6.094;2023-04-01T00:21:26;9.20;99.90
26212;DHT22;13951;49.516;6.094;2023-04-01T00:23:59;9.20;99.90
26212;DHT22;13951;49.516;6.094;2023-04-01T00:26:32;9.20;99.90
26212;DHT22;13951;49.516;6.094;2023-04-01T00:29:05;9.20;99.90
26212;DHT22;13951;49.516;6.094;2023-04-01T00:31:39;9.20;99.90
26212;DHT22;13951;49.516;6.094;2023-04-01T00:34:12;9.30;99.90
26212;DHT22;13951;49.516;6.094;2023-04-01T00:36:45;9.20;99.90
26212;DHT22;13951;49.516;6.094;2023-04-01T00:39:19;9.30;99.90
26212;DHT22;13951;49.516;6.094;2023-04-01T00:41:51;9.30;99.90
26212;DHT22;13951;49.516;6.094;2023-04-01T00:44:27;9.30;99.90
26212;DHT22;13951;49.516;6.094;2023-04-01T00:47:00;9.30;99.90
26212;DHT22;13951;49.516;6.094;2023-04-01T00:49:38;9.30;99.90
26212;DHT22;13951;49.516;6.094;2023-04-01T00:52:15;9.30;99.90
26212;DHT22;13951;49.516;6.094;2023-04-01T00:54:53;9.30;99.90
26212;DHT22;13951;49.516;6.094;2023-04-01T00:57:32;9.30;99.90
26212;DHT22;13951;49.516;6.094;2023-04-01T01:00:10;9.30;99.90
26212;DHT22;13951;49.516;6.094;2023-04-01T01:02:45;9.30;99.90
26212;DHT22;13951;49.516;6.094;2023-04-01T01:05:23;9.40;99.90
26212;DHT22;13951;49.516;6.094;2023-04-01T01:10:38;9.40;99.90
26212;DHT22;13951;49.516;6.094;2023-04-01T01:14:07;9.40;99.90
26212;DHT22;13951;49.516;6.094;2023-04-01T01:16:32;9.40;99.90
26212;DHT22;13951;49.516;6.094;2023-04-01T01:19:17;9.40;99.90
26212;DHT22;13951;49.516;6.094;2023-04-01T01:22:15;9.40;99.90
26212;DHT22;13951;49.516;6.094;2023-04-01T01:27:34;9.40;99.90
26212;DHT22;13951;49.516;6.094;2023-04-01T01:31:03;9.40;99.90
26212;DHT22;13951;49.516;6.094;2023-04-01T01:33:32;9.40;99.90
26212;DHT22;13951;49.516;6.094;2023-04-01T01:36:10;9.40;99.90
26212;DHT22;13951;49.516;6.094;2023-04-01T01:38:46;9.40;99.90
26212;DHT22;13951;49.516;6.094;2023-04-01T01:41:21;9.40;99.90
26212;DHT22;13951;49.516;6.094;2023-04-01T01:43:56;9.40;99.90
26212;DHT22;13951;49.516;6.094;2023-04-01T01:46:31;9.40;99.90
26212;DHT22;13951;49.516;6.094;2023-04-01T01:49:05;9.40;99.90
26212;DHT22;13951;49.516;6.094;2023-04-01T01:51:39;9.40;99.90
26212;DHT22;13951;49.516;6.094;2023-04-01T01:54:17;9.30;99.90
26212;DHT22;13951;49.516;6.094;2023-04-01T01:56:55;9.30;99.90
26212;DHT22;13951;49.516;6.094;2023-04-01T01:59:30;9.20;99.90
26212;DHT22;13951;49.516;6.094;2023-04-01T02:02:06;9.20;99.90
26212;DHT22;13951;49.516;6.094;2023-04-01T02:04:43;9.20;99.90
26212;DHT22;13951;49.516;6.094;2023-04-01T02:07:27;9.10;99.90
26212;DHT22;13951;49.516;6.094;2023-04-01T02:10:01;9.10;99.90
26212;DHT22;13951;49.516;6.094;2023-04-01T02:12:35;9.00;99.90
26212;DHT22;13951;49.516;6.094;2023-04-01T02:15:11;9.00;99.90
26212;DHT22;13951;49.516;6.094;2023-04-01T02:17:47;9.00;99.90
26212;DHT22;13951;49.516;6.094;2023-04-01T02:20:22;8.90;99.90
26212;DHT22;13951;49.516;6.094;2023-04-01T02:22:57;8.90;99.90
26212;DHT22;13951;49.516;6.094;2023-04-01T02:25:35;8.90;99.90
26212;DHT22;13951;49.516;6.094;2023-04-01T02:28:09;8.90;99.90
26212;DHT22;13951;49.516;6.094;2023-04-01T02:30:44;8.80;99.90
26212;DHT22;13951;49.516;6.094;2023-04-01T02:33:19;8.80;99.90
26212;DHT22;13951;49.516;6.094;2023-04-01T02:35:52;8.80;99.90
26212;DHT22;13951;49.516;6.094;2023-04-01T02:38:26;8.80;99.90
26212;DHT22;13951;49.516;6.094;2023-04-01T02:41:00;8.70;99.90
26212;DHT22;13951;49.516;6.094;2023-04-01T02:43:33;8.70;99.90
26212;DHT22;13951;49.516;6.094;2023-04-01T02:46:07;8.70;99.90
26212;DHT22;13951;49.516;6.094;2023-04-01T02:48:39;8.70;99.90
26212;DHT22;13951;49.516;6.094;2023-04-01T02:51:12;8.70;99.90
26212;DHT22;13951;49.516;6.094;2023-04-01T02:53:45;8.70;99.90
26212;DHT22;13951;49.516;6.094;2023-04-01T02:56:18;8.70;99.90
26212;DHT22;13951;49.516;6.094;2023-04-01T02:58:52;8.70;99.90
26212;DHT22;13951;49.516;6.094;2023-04-01T03:01:25;8.70;99.90
26212;DHT22;13951;49.516;6.094;2023-04-01T03:03:58;8.60;99.90
26212;DHT22;13951;49.516;6.094;2023-04-01T03:06:31;8.60;99.90
26212;DHT22;13951;49.516;6.094;2023-04-01T03:09:03;8.60;99.90
26212;DHT22;13951;49.516;6.094;2023-04-01T03:11:37;8.60;99.90
26212;DHT22;13951;49.516;6.094;2023-04-01T03:14:09;8.60;99.90
26212;DHT22;13951;49.516;6.094;2023-04-01T03:16:42;8.60;99.90
26212;DHT22;13951;49.516;6.094;2023-04-01T03:19:15;8.60;99.90
26212;DHT22;13951;49.516;6.094;2023-04-01T03:21:48;8.60;99.90
26212;DHT22;13951;49.516;6.094;2023-04-01T03:24:21;8.50;99.90
26212;DHT22;13951;49.516;6.094;2023-04-01T03:26:54;8.60;99.90
26212;DHT22;13951;49.516;6.094;2023-04-01T03:29:27;8.50;99.90
26212;DHT22;13951;49.516;6.094;2023-04-01T03:32:00;8.50;99.90
26212;DHT22;13951;49.516;6.094;2023-04-01T03:34:33;8.50;99.90
26212;DHT22;13951;49.516;6.094;2023-04-01T03:37:05;8.50;99.90
26212;DHT22;13951;49.516;6.094;2023-04-01T03:39:38;8.50;99.90
26212;DHT22;13951;49.516;6.094;2023-04-01T03:42:12;8.50;99.90
26212;DHT22;13951;49.516;6.094;2023-04-01T03:44:44;8.50;99.90
26212;DHT22;13951;49.516;6.094;2023-04-01T03:47:18;8.50;99.90
26212;DHT22;13951;49.516;6.094;2023-04-01T03:49:50;8.50;99.90
26212;DHT22;13951;49.516;6.094;2023-04-01T03:52:23;8.50;99.90
26212;DHT22;13951;49.516;6.094;2023-04-01T03:54:56;8.50;99.90
26212;DHT22;13951;49.516;6.094;2023-04-01T03:57:31;8.50;99.90
26212;DHT22;13951;49.516;6.094;2023-04-01T04:00:10;8.60;99.90
26212;DHT22;13951;49.516;6.094;2023-04-01T04:02:48;8.50;99.90
26212;DHT22;13951;49.516;6.094;2023-04-01T04:05:26;8.50;99.90
26212;DHT22;13951;49.516;6.094;2023-04-01T04:07:59;8.50;99.90
26212;DHT22;13951;49.516;6.094;2023-04-01T04:10:32;8.50;99.90
26212;DHT22;13951;49.516;6.094;2023-04-01T04:13:05;8.50;99.90
26212;DHT22;13951;49.516;6.094;2023-04-01T04:15:42;8.50;99.90
26212;DHT22;13951;49.516;6.094;2023-04-01T04:18:15;8.50;99.90
26212;DHT22;13951;49.516;6.094;2023-04-01T04:20:48;8.50;99.90
26212;DHT22;13951;49.516;6.094;2023-04-01T04:23:24;8.60;99.90
26212;DHT22;13951;49.516;6.094;2023-04-01T04:26:05;8.60;99.90
26212;DHT22;13951;49.516;6.094;2023-04-01T04:28:39;8.60;99.90
26212;DHT22;13951;49.516;6.094;2023-04-01T04:31:12;8.60;99.90
26212;DHT22;13951;49.516;6.094;2023-04-01T04:33:51;8.60;99.90
26212;DHT22;13951;49.516;6.094;2023-04-01T04:36:24;8.60;99.90
26212;DHT22;13951;49.516;6.094;2023-04-01T04:38:57;8.60;99.90
26212;DHT22;13951;49.516;6.094;2023-04-01T04:41:37;8.60;99.90
26212;DHT22;13951;49.516;6.094;2023-04-01T04:44:10;8.60;99.90
26212;DHT22;13951;49.516;6.094;2023-04-01T04:46:43;8.60;99.90
26212;DHT22;13951;49.516;6.094;2023-04-01T04:49:20;8.60;99.90
26212;DHT22;13951;49.516;6.094;2023-04-01T04:51:53;8.60;99.90
26212;DHT22;13951;49.516;6.094;2023-04-01T04:54:29;8.60;99.90
26212;DHT22;13951;49.516;6.094;2023-04-01T04:57:04;8.60;99.90
26212;DHT22;13951;49.516;6.094;2023-04-01T04:59:43;8.60;99.90
26212;DHT22;13951;49.516;6.094;2023-04-01T05:02:19;8.60;99.90
26212;DHT22;13951;49.516;6.094;2023-04-01T05:04:52;8.60;99.90
26212;DHT22;13951;49.516;6.094;2023-04-01T05:07:25;8.60;99.90
26212;DHT22;13951;49.516;6.094;2023-04-01T05:09:58;8.60;99.90
26212;DHT22;13951;49.516;6.094;2023-04-01T05:12:32;8.60;99.90
26212;DHT22;13951;49.516;6.094;2023-04-01T05:15:08;8.60;99.90
26212;DHT22;13951;49.516;6.094;2023-04-01T05:17:42;8.60;99.90
26212;DHT22;13951;49.516;6.094;2023-04-01T05:20:16;8.60;99.90
26212;DHT22;13951;49.516;6.094;2023-04-01T05:22:49;8.60;99.90
26212;DHT22;13951;49.516;6.094;2023-04-01T05:25:22;8.70;99.90
26212;DHT22;13951;49.516;6.094;2023-04-01T05:27:55;8.60;99.90
26212;DHT22;13951;49.516;6.094;2023-04-01T05:30:28;8.70;99.90
26212;DHT22;13951;49.516;6.094;2023-04-01T05:33:09;8.70;99.90
26212;DHT22;13951;49.516;6.094;2023-04-01T05:35:42;8.70;99.90
26212;DHT22;13951;49.516;6.094;2023-04-01T05:38:15;8.70;99.90
26212;DHT22;13951;49.516;6.094;2023-04-01T05:40:48;8.70;99.90
26212;DHT22;13951;49.516;6.094;2023-04-01T05:43:21;8.70;99.90
26212;DHT22;13951;49.516;6.094;2023-04-01T05:45:56;8.70;99.90
26212;DHT22;13951;49.516;6.094;2023-04-01T05:48:53;8.70;99.90
26212;DHT22;13951;49.516;6.094;2023-04-01T05:51:27;8.70;99.90
26212;DHT22;13951;49.516;6.094;2023-04-01T05:54:00;8.70;99.90
26212;DHT22;13951;49.516;6.094;2023-04-01T05:56:33;8.70;99.90
26212;DHT22;13951;49.516;6.094;2023-04-01T05:59:08;8.70;99.90
26212;DHT22;13951;49.516;6.094;2023-04-01T06:01:42;8.70;99.90
26212;DHT22;13951;49.516;6.094;2023-04-01T06:04:16;8.70;99.90
26212;DHT22;13951;49.516;6.094;2023-04-01T06:06:50;8.70;99.90
26212;DHT22;13951;49.516;6.094;2023-04-01T06:09:27;8.70;99.90
26212;DHT22;13951;49.516;6.094;2023-04-01T06:30:19;8.90;99.90
26212;DHT22;13951;49.516;6.094;2023-04-01T06:57:33;9.10;99.90
26212;DHT22;13951;49.516;6.094;2023-04-01T07:00:27;9.10;99.90
26212;DHT22;13951;49.516;6.094;2023-04-01T07:05:39;9.10;99.90
26212;DHT22;13951;49.516;6.094;2023-04-01T07:08:18;9.20;99.90
26212;DHT22;13951;49.516;6.094;2023-04-01T07:11:01;9.20;99.90
26212;DHT22;13951;49.516;6.094;2023-04-01T07:13:58;9.20;99.90
26212;DHT22;13951;49.516;6.094;2023-04-01T07:20:16;9.30;99.90
26212;DHT22;13951;49.516;6.094;2023-04-01T07:22:55;9.30;99.90
26212;DHT22;13951;49.516;6.094;2023-04-01T07:25:41;9.30;99.90
26212;DHT22;13951;49.516;6.094;2023-04-01T07:28:34;9.30;99.90
26212;DHT22;13951;49.516;6.094;2023-04-01T07:34:30;9.30;99.90
26212;DHT22;13951;49.516;6.094;2023-04-01T07:37:14;9.40;99.90
26212;DHT22;13951;49.516;6.094;2023-04-01T07:42:52;9.50;99.90
26212;DHT22;13951;49.516;6.094;2023-04-01T07:45:43;9.50;99.90
26212;DHT22;13951;49.516;6.094;2023-04-01T07:48:38;9.50;99.90
26212;DHT22;13951;49.516;6.094;2023-04-01T07:51:37;9.50;99.90
26212;DHT22;13951;49.516;6.094;2023-04-01T07:56:54;9.60;99.90
26212;DHT22;13951;49.516;6.094;2023-04-01T08:00:15;9.60;99.90
26212;DHT22;13951;49.516;6.094;2023-04-01T08:03:35;9.60;99.90
26212;DHT22;13951;49.516;6.094;2023-04-01T08:10:02;9.70;99.90
26212;DHT22;13951;49.516;6.094;2023-04-01T08:13:26;9.70;99.90
26212;DHT22;13951;49.516;6.094;2023-04-01T08:22:44;9.60;99.90
26212;DHT22;13951;49.516;6.094;2023-04-01T08:25:30;9.60;99.90
26212;DHT22;13951;49.516;6.094;2023-04-01T08:28:27;9.70;99.90
26212;DHT22;13951;49.516;6.094;2023-04-01T08:31:05;9.70;99.90
26212;DHT22;13951;49.516;6.094;2023-04-01T08:33:41;9.70;99.90
26212;DHT22;13951;49.516;6.094;2023-04-01T08:36:22;9.70;99.90
26212;DHT22;13951;49.516;6.094;2023-04-01T08:39:23;9.80;99.90
26212;DHT22;13951;49.516;6.094;2023-04-01T08:48:19;9.90;99.90
26212;DHT22;13951;49.516;6.094;2023-04-01T08:51:01;9.90;99.90
26212;DHT22;13951;49.516;6.094;2023-04-01T09:03:41;10.00;99.90
26212;DHT22;13951;49.516;6.094;2023-04-01T09:15:16;10.10;99.90
26212;DHT22;13951;49.516;6.094;2023-04-01T09:18:13;10.10;99.90
26212;DHT22;13951;49.516;6.094;2023-04-01T09:27:03;10.10;99.90
26212;DHT22;13951;49.516;6.094;2023-04-01T09:29:54;10.20;99.90
26212;DHT22;13951;49.516;6.094;2023-04-01T09:32:54;10.10;99.90
26212;DHT22;13951;49.516;6.094;2023-04-01T09:35:46;10.10;99.90
26212;DHT22;13951;49.516;6.094;2023-04-01T09:41:32;10.10;99.90
26212;DHT22;13951;49.516;6.094;2023-04-01T09:44:40;10.10;99.90
26212;DHT22;13951;49.516;6.094;2023-04-01T09:53:32;10.20;99.90
26212;DHT22;13951;49.516;6.094;2023-04-01T09:59:15;10.40;99.90
26212;DHT22;13951;49.516;6.094;2023-04-01T10:20:52;11.20;99.90
26212;DHT22;13951;49.516;6.094;2023-04-01T10:24:03;11.30;99.90
26212;DHT22;13951;49.516;6.094;2023-04-01T10:27:04;11.40;99.90
26212;DHT22;13951;49.516;6.094;2023-04-01T10:30:05;11.40;99.90
26212;DHT22;13951;49.516;6.094;2023-04-01T10:36:19;11.20;99.90
26212;DHT22;13951;49.516;6.094;2023-04-01T10:39:20;11.20;99.90
26212;DHT22;13951;49.516;6.094;2023-04-01T10:48:40;11.40;99.90
26212;DHT22;13951;49.516;6.094;2023-04-01T10:51:31;11.10;99.90
26212;DHT22;13951;49.516;6.094;2023-04-01T11:01:16;11.10;99.90
26212;DHT22;13951;49.516;6.094;2023-04-01T11:14:07;10.90;99.90
26212;DHT22;13951;49.516;6.094;2023-04-01T11:19:41;11.10;99.90
26212;DHT22;13951;49.516;6.094;2023-04-01T11:31:47;11.20;99.90
26212;DHT22;13951;49.516;6.094;2023-04-01T11:35:19;11.20;99.90
26212;DHT22;13951;49.516;6.094;2023-04-01T11:41:02;11.20;99.90
26212;DHT22;13951;49.516;6.094;2023-04-01T11:53:12;11.20;99.90
26212;DHT22;13951;49.516;6.094;2023-04-01T12:01:20;11.20;99.90
26212;DHT22;13951;49.516;6.094;2023-04-01T12:07:03;11.10;99.90
26212;DHT22;13951;49.516;6.094;2023-04-01T12:10:02;11.00;99.90
26212;DHT22;13951;49.516;6.094;2023-04-01T12:12:54;11.00;99.90
26212;DHT22;13951;49.516;6.094;2023-04-01T12:27:20;10.40;99.90
26212;DHT22;13951;49.516;6.094;2023-04-01T12:30:15;10.40;99.90
26212;DHT22;13951;49.516;6.094;2023-04-01T12:35:45;10.50;99.90
26212;DHT22;13951;49.516;6.094;2023-04-01T12:44:16;10.60;99.90
26212;DHT22;13951;49.516;6.094;2023-04-01T13:01:29;10.50;99.90
26212;DHT22;13951;49.516;6.094;2023-04-01T13:04:32;10.50;99.90
26212;DHT22;13951;49.516;6.094;2023-04-01T13:07:46;10.50;99.90
26212;DHT22;13951;49.516;6.094;2023-04-01T13:16:52;10.40;99.90
26212;DHT22;13951;49.516;6.094;2023-04-01T13:19:32;10.40;99.90
26212;DHT22;13951;49.516;6.094;2023-04-01T13:22:24;10.40;99.90
26212;DHT22;13951;49.516;6.094;2023-04-01T13:25:10;10.30;99.90
26212;DHT22;13951;49.516;6.094;2023-04-01T13:27:53;10.30;99.90
26212;DHT22;13951;49.516;6.094;2023-04-01T13:30:55;10.40;99.90
26212;DHT22;13951;49.516;6.094;2023-04-01T13:33:58;10.30;99.90
26212;DHT22;13951;49.516;6.094;2023-04-01T13:42:33;10.60;99.90
26212;DHT22;13951;49.516;6.094;2023-04-01T13:45:19;10.60;99.90
26212;DHT22;13951;49.516;6.094;2023-04-01T13:51:06;10.60;99.90
26212;DHT22;13951;49.516;6.094;2023-04-01T14:15:39;10.00;99.90
26212;DHT22;13951;49.516;6.094;2023-04-01T14:24:08;10.10;99.90
26212;DHT22;13951;49.516;6.094;2023-04-01T14:30:26;10.10;99.90
26212;DHT22;13951;49.516;6.094;2023-04-01T14:50:18;10.30;99.90
26212;DHT22;13951;49.516;6.094;2023-04-01T14:58:18;10.30;99.90
26212;DHT22;13951;49.516;6.094;2023-04-01T15:09:50;10.30;99.90
26212;DHT22;13951;49.516;6.094;2023-04-01T15:12:34;10.40;99.90
26212;DHT22;13951;49.516;6.094;2023-04-01T15:18:27;10.40;99.90
26212;DHT22;13951;49.516;6.094;2023-04-01T15:21:30;10.40;99.90
26212;DHT22;13951;49.516;6.094;2023-04-01T15:24:37;10.40;99.90
26212;DHT22;13951;49.516;6.094;2023-04-01T15:35:52;10.40;99.90
26212;DHT22;13951;49.516;6.094;2023-04-01T15:39:04;10.40;99.90
26212;DHT22;13951;49.516;6.094;2023-04-01T15:47:28;10.40;99.90
26212;DHT22;13951;49.516;6.094;2023-04-01T15:50:26;10.40;99.90
26212;DHT22;13951;49.516;6.094;2023-04-01T16:10:38;10.30;99.90
26212;DHT22;13951;49.516;6.094;2023-04-01T16:16:17;10.30;99.90
26212;DHT22;13951;49.516;6.094;2023-04-01T16:19:04;10.30;99.90
26212;DHT22;13951;49.516;6.094;2023-04-01T16:21:48;10.30;99.90
26212;DHT22;13951;49.516;6.094;2023-04-01T16:24:43;10.40;99.90
26212;DHT22;13951;49.516;6.094;2023-04-01T16:30:17;10.30;99.90
26212;DHT22;13951;49.516;6.094;2023-04-01T16:35:59;10.20;99.90
26212;DHT22;13951;49.516;6.094;2023-04-01T16:38:59;10.20;99.90
26212;DHT22;13951;49.516;6.094;2023-04-01T16:41:52;10.10;99.90
26212;DHT22;13951;49.516;6.094;2023-04-01T16:44:27;10.10;99.90
26212;DHT22;13951;49.516;6.094;2023-04-01T16:47:10;10.10;99.90
26212;DHT22;13951;49.516;6.094;2023-04-01T16:49:52;10.10;99.90
26212;DHT22;13951;49.516;6.094;2023-04-01T16:55:35;10.00;99.90
26212;DHT22;13951;49.516;6.094;2023-04-01T16:58:09;10.00;99.90
26212;DHT22;13951;49.516;6.094;2023-04-01T17:00:51;10.00;99.90
26212;DHT22;13951;49.516;6.094;2023-04-01T17:03:32;10.00;99.90
26212;DHT22;13951;49.516;6.094;2023-04-01T17:14:54;10.00;99.90
26212;DHT22;13951;49.516;6.094;2023-04-01T17:33:15;9.90;99.90
26212;DHT22;13951;49.516;6.094;2023-04-01T17:35:30;9.90;99.90
26212;DHT22;13951;49.516;6.094;2023-04-01T17:41:05;9.90;99.90
26212;DHT22;13951;49.516;6.094;2023-04-01T17:49:21;9.80;99.90
26212;DHT22;13951;49.516;6.094;2023-04-01T18:01:02;9.80;99.90
26212;DHT22;13951;49.516;6.094;2023-04-01T18:04:29;9.80;99.90
26212;DHT22;13951;49.516;6.094;2023-04-01T18:10:17;9.70;99.90
26212;DHT22;13951;49.516;6.094;2023-04-01T18:16:13;9.70;99.90
26212;DHT22;13951;49.516;6.094;2023-04-01T18:21:54;9.70;99.90
26212;DHT22;13951;49.516;6.094;2023-04-01T18:24:40;9.70;99.90
26212;DHT22;13951;49.516;6.094;2023-04-01T18:27:30;9.70;99.90
26212;DHT22;13951;49.516;6.094;2023-04-01T18:30:13;9.70;99.90
26212;DHT22;13951;49.516;6.094;2023-04-01T18:32:55;9.70;99.90
26212;DHT22;13951;49.516;6.094;2023-04-01T18:36:09;9.70;99.90
26212;DHT22;13951;49.516;6.094;2023-04-01T18:38:55;9.70;99.90
26212;DHT22;13951;49.516;6.094;2023-04-01T18:41:40;9.70;99.90
26212;DHT22;13951;49.516;6.094;2023-04-01T18:44:45;9.70;99.90
26212;DHT22;13951;49.516;6.094;2023-04-01T18:50:07;9.70;99.90
26212;DHT22;13951;49.516;6.094;2023-04-01T18:52:45;9.70;99.90
26212;DHT22;13951;49.516;6.094;2023-04-01T18:55:42;9.70;99.90
26212;DHT22;13951;49.516;6.094;2023-04-01T18:58:29;9.70;99.90
26212;DHT22;13951;49.516;6.094;2023-04-01T19:01:22;9.70;99.90
26212;DHT22;13951;49.516;6.094;2023-04-01T19:04:11;9.70;99.90
26212;DHT22;13951;49.516;6.094;2023-04-01T19:10:14;9.60;99.90
26212;DHT22;13951;49.516;6.094;2023-04-01T19:21:33;9.60;99.90
26212;DHT22;13951;49.516;6.094;2023-04-01T19:36:03;9.60;99.90
26212;DHT22;13951;49.516;6.094;2023-04-01T19:39:13;9.60;99.90
26212;DHT22;13951;49.516;6.094;2023-04-01T19:47:51;9.60;99.90
26212;DHT22;13951;49.516;6.094;2023-04-01T19:53:50;9.60;99.90
26212;DHT22;13951;49.516;6.094;2023-04-01T19:56:24;9.60;99.90
26212;DHT22;13951;49.516;6.094;2023-04-01T19:59:19;9.50;99.90
26212;DHT22;13951;49.516;6.094;2023-04-01T20:02:22;9.50;99.90
26212;DHT22;13951;49.516;6.094;2023-04-01T20:04:57;9.50;99.90
26212;DHT22;13951;49.516;6.094;2023-04-01T20:07:39;9.50;99.90
26212;DHT22;13951;49.516;6.094;2023-04-01T20:10:20;9.40;99.90
26212;DHT22;13951;49.516;6.094;2023-04-01T20:13:19;9.40;99.90
26212;DHT22;13951;49.516;6.094;2023-04-01T20:16:08;9.40;99.90
26212;DHT22;13951;49.516;6.094;2023-04-01T20:18:59;9.40;99.90
26212;DHT22;13951;49.516;6.094;2023-04-01T20:21:42;9.30;99.90
26212;DHT22;13951;49.516;6.094;2023-04-01T20:24:29;9.30;99.90
26212;DHT22;13951;49.516;6.094;2023-04-01T20:35:49;9.20;99.90
26212;DHT22;13951;49.516;6.094;2023-04-01T20:53:33;9.40;99.90
26212;DHT22;13951;49.516;6.094;2023-04-01T21:01:54;9.50;99.90
26212;DHT22;13951;49.516;6.094;2023-04-01T21:07:28;9.50;99.90
26212;DHT22;13951;49.516;6.094;2023-04-01T21:30:35;9.40;99.90
26212;DHT22;13951;49.516;6.094;2023-04-01T21:39:26;9.40;99.90
26212;DHT22;13951;49.516;6.094;2023-04-01T22:00:17;9.40;99.90
26212;DHT22;13951;49.516;6.094;2023-04-01T22:03:07;9.40;99.90
26212;DHT22;13951;49.516;6.094;2023-04-01T22:06:19;9.40;99.90
26212;DHT22;13951;49.516;6.094;2023-04-01T22:09:21;9.30;99.90
26212;DHT22;13951;49.516;6.094;2023-04-01T22:12:06;9.30;99.90
26212;DHT22;13951;49.516;6.094;2023-04-01T22:20:34;9.10;99.90
26212;DHT22;13951;49.516;6.094;2023-04-01T22:26:47;9.20;99.90
26212;DHT22;13951;49.516;6.094;2023-04-01T22:29:53;9.10;99.90
26212;DHT22;13951;49.516;6.094;2023-04-01T22:32:48;9.10;99.90
26212;DHT22;13951;49.516;6.094;2023-04-01T22:41:10;9.10;99.90
26212;DHT22;13951;49.516;6.094;2023-04-01T22:43:45;9.10;99.90
26212;DHT22;13951;49.516;6.094;2023-04-01T22:49:46;9.20;99.90
26212;DHT22;13951;49.516;6.094;2023-04-01T22:52:29;9.20;99.90
26212;DHT22;13951;49.516;6.094;2023-04-01T22:55:16;9.20;99.90
26212;DHT22;13951;49.516;6.094;2023-04-01T22:57:57;9.10;99.90
26212;DHT22;13951;49.516;6.094;2023-04-01T23:00:47;9.10;99.90
26212;DHT22;13951;49.516;6.094;2023-04-01T23:03:41;9.10;99.90
26212;DHT22;13951;49.516;6.094;2023-04-01T23:06:20;9.10;99.90
26212;DHT22;13951;49.516;6.094;2023-04-01T23:09:35;9.10;99.90
26212;DHT22;13951;49.516;6.094;2023-04-01T23:12:13;9.10;99.90
26212;DHT22;13951;49.516;6.094;2023-04-01T23:14:59;9.10;99.90
26212;DHT22;13951;49.516;6.094;2023-04-01T23:17:38;9.10;99.90
26212;DHT22;13951;49.516;6.094;2023-04-01T23:23:33;9.10;99.90
26212;DHT22;13951;49.516;6.094;2023-04-01T23:26:17;9.10;99.90
26212;DHT22;13951;49.516;6.094;2023-04-01T23:28:55;9.10;99.90
26212;DHT22;13951;49.516;6.094;2023-04-01T23:31:40;9.10;99.90
26212;DHT22;13951;49.516;6.094;2023-04-01T23:36:49;9.10;99.90
26212;DHT22;13951;49.516;6.094;2023-04-01T23:39:29;9.10;99.90
26212;DHT22;13951;49.516;6.094;2023-04-01T23:44:58;9.00;99.90
26212;DHT22;13951;49.516;6.094;2023-04-01T23:47:35;8.90;99.90
26212;DHT22;13951;49.516;6.094;2023-04-01T23:50:17;8.90;99.90
26212;DHT22;13951;49.516;6.094;2023-04-01T23:53:01;8.90;99.90
26212;DHT22;13951;49.516;6.094;2023-04-01T23:55:35;8.90;99.90
26212;DHT22;13951;49.516;6.094;2023-04-01T23:58:22;8.90;99.90
